sensor_id;sensor_type;location;lat;lon;timestamp;temperature;humidity
17956;DHT22;27666;51.498;11.966;2022-10-12T00:00:34;6.90;99.90
17956;DHT22;27666;51.498;11.966;2022-10-12T00:03:21;6.80;99.90
17956;DHT22;27666;51.498;11.966;2022-10-12T00:06:09;6.70;99.90
17956;DHT22;27666;51.498;11.966;2022-10-12T00:08:56;6.80;99.90
17956;DHT22;27666;51.498;11.966;2022-10-12T00:11:42;6.90;99.90
17956;DHT22;27666;51.498;11.966;2022-10-12T00:14:31;7.00;99.90
17956;DHT22;27666;51.498;11.966;2022-10-12T00:17:20;6.90;99.90
17956;DHT22;27666;51.498;11.966;2022-10-12T00:20:07;6.80;99.90
17956;DHT22;27666;51.498;11.966;2022-10-12T00:22:53;6.60;99.90
17956;DHT22;27666;51.498;11.966;2022-10-12T00:25:40;6.80;99.90
17956;DHT22;27666;51.498;11.966;2022-10-12T00:28:27;7.00;99.90
17956;DHT22;27666;51.498;11.966;2022-10-12T00:31:18;7.10;99.90
17956;DHT22;27666;51.498;11.966;2022-10-12T00:34:05;7.30;99.90
17956;DHT22;27666;51.498;11.966;2022-10-12T00:36:54;7.40;99.90
17956;DHT22;27666;51.498;11.966;2022-10-12T00:39:41;7.50;99.90
17956;DHT22;27666;51.498;11.966;2022-10-12T00:42:27;7.50;99.90
17956;DHT22;27666;51.498;11.966;2022-10-12T00:45:14;7.60;99.90
17956;DHT22;27666;51.498;11.966;2022-10-12T00:48:02;7.60;99.90
17956;DHT22;27666;51.498;11.966;2022-10-12T00:50:48;7.50;99.90
17956;DHT22;27666;51.498;11.966;2022-10-12T00:53:38;7.50;99.90
17956;DHT22;27666;51.498;11.966;2022-10-12T00:56:29;7.40;99.90
17956;DHT22;27666;51.498;11.966;2022-10-12T00:59:20;7.40;99.90
17956;DHT22;27666;51.498;11.966;2022-10-12T01:02:07;7.40;99.90
17956;DHT22;27666;51.498;11.966;2022-10-12T01:04:55;7.30;99.90
17956;DHT22;27666;51.498;11.966;2022-10-12T01:07:42;7.30;99.90
17956;DHT22;27666;51.498;11.966;2022-10-12T01:10:29;7.30;99.90
17956;DHT22;27666;51.498;11.966;2022-10-12T01:13:15;7.20;99.90
17956;DHT22;27666;51.498;11.966;2022-10-12T01:16:07;7.20;99.90
17956;DHT22;27666;51.498;11.966;2022-10-12T01:18:59;7.00;99.90
17956;DHT22;27666;51.498;11.966;2022-10-12T01:21:52;7.00;99.90
17956;DHT22;27666;51.498;11.966;2022-10-12T01:24:44;7.10;99.90
17956;DHT22;27666;51.498;11.966;2022-10-12T01:27:39;7.20;99.90
17956;DHT22;27666;51.498;11.966;2022-10-12T01:30:33;7.30;99.90
17956;DHT22;27666;51.498;11.966;2022-10-12T01:33:27;7.30;99.90
17956;DHT22;27666;51.498;11.966;2022-10-12T01:36:18;7.30;99.90
17956;DHT22;27666;51.498;11.966;2022-10-12T01:39:11;7.20;99.90
17956;DHT22;27666;51.498;11.966;2022-10-12T01:42:06;7.10;99.90
17956;DHT22;27666;51.498;11.966;2022-10-12T01:45:00;7.10;99.90
17956;DHT22;27666;51.498;11.966;2022-10-12T01:47:50;7.20;99.90
17956;DHT22;27666;51.498;11.966;2022-10-12T01:50:46;7.20;99.90
17956;DHT22;27666;51.498;11.966;2022-10-12T01:53:40;7.20;99.90
17956;DHT22;27666;51.498;11.966;2022-10-12T01:56:35;7.20;99.90
17956;DHT22;27666;51.498;11.966;2022-10-12T01:59:33;7.30;99.90
17956;DHT22;27666;51.498;11.966;2022-10-12T02:02:27;7.20;99.90
17956;DHT22;27666;51.498;11.966;2022-10-12T02:05:23;7.00;99.90
17956;DHT22;27666;51.498;11.966;2022-10-12T02:08:17;6.90;99.90
17956;DHT22;27666;51.498;11.966;2022-10-12T02:11:08;7.10;99.90
17956;DHT22;27666;51.498;11.966;2022-10-12T02:13:57;7.10;99.90
17956;DHT22;27666;51.498;11.966;2022-10-12T02:16:47;7.10;99.90
17956;DHT22;27666;51.498;11.966;2022-10-12T02:19:38;7.10;99.90
17956;DHT22;27666;51.498;11.966;2022-10-12T02:22:30;7.20;99.90
17956;DHT22;27666;51.498;11.966;2022-10-12T02:28:09;7.20;99.90
17956;DHT22;27666;51.498;11.966;2022-10-12T02:31:00;7.10;99.90
17956;DHT22;27666;51.498;11.966;2022-10-12T02:33:56;7.10;99.90
17956;DHT22;27666;51.498;11.966;2022-10-12T02:36:47;6.90;99.90
17956;DHT22;27666;51.498;11.966;2022-10-12T02:39:41;6.60;99.90
17956;DHT22;27666;51.498;11.966;2022-10-12T02:42:32;6.40;99.90
17956;DHT22;27666;51.498;11.966;2022-10-12T02:45:42;6.30;99.90
17956;DHT22;27666;51.498;11.966;2022-10-12T02:48:30;6.20;99.90
17956;DHT22;27666;51.498;11.966;2022-10-12T02:51:18;6.20;99.90
17956;DHT22;27666;51.498;11.966;2022-10-12T02:54:06;6.20;99.90
17956;DHT22;27666;51.498;11.966;2022-10-12T02:56:54;6.40;99.90
17956;DHT22;27666;51.498;11.966;2022-10-12T02:59:41;6.40;99.90
17956;DHT22;27666;51.498;11.966;2022-10-12T03:02:27;6.20;99.90
17956;DHT22;27666;51.498;11.966;2022-10-12T03:05:14;6.20;99.90
17956;DHT22;27666;51.498;11.966;2022-10-12T03:08:00;6.30;99.90
17956;DHT22;27666;51.498;11.966;2022-10-12T03:10:47;6.00;99.90
17956;DHT22;27666;51.498;11.966;2022-10-12T03:13:34;5.70;99.90
17956;DHT22;27666;51.498;11.966;2022-10-12T03:16:21;5.50;99.90
17956;DHT22;27666;51.498;11.966;2022-10-12T03:19:08;5.40;99.90
17956;DHT22;27666;51.498;11.966;2022-10-12T03:21:54;5.50;99.90
17956;DHT22;27666;51.498;11.966;2022-10-12T03:24:40;5.40;99.90
17956;DHT22;27666;51.498;11.966;2022-10-12T03:27:27;5.20;99.90
17956;DHT22;27666;51.498;11.966;2022-10-12T03:30:15;5.40;99.90
17956;DHT22;27666;51.498;11.966;2022-10-12T03:33:01;5.50;99.90
17956;DHT22;27666;51.498;11.966;2022-10-12T03:35:48;5.60;99.90
17956;DHT22;27666;51.498;11.966;2022-10-12T03:38:35;5.60;99.90
17956;DHT22;27666;51.498;11.966;2022-10-12T03:41:21;5.50;99.90
17956;DHT22;27666;51.498;11.966;2022-10-12T03:44:07;5.60;99.90
17956;DHT22;27666;51.498;11.966;2022-10-12T03:46:55;5.50;99.90
17956;DHT22;27666;51.498;11.966;2022-10-12T03:49:41;5.60;99.90
17956;DHT22;27666;51.498;11.966;2022-10-12T03:52:27;5.80;99.90
17956;DHT22;27666;51.498;11.966;2022-10-12T03:55:14;6.00;99.90
17956;DHT22;27666;51.498;11.966;2022-10-12T03:58:01;6.00;99.90
17956;DHT22;27666;51.498;11.966;2022-10-12T04:00:52;6.00;99.90
17956;DHT22;27666;51.498;11.966;2022-10-12T04:03:40;6.10;99.90
17956;DHT22;27666;51.498;11.966;2022-10-12T04:06:27;6.10;99.90
17956;DHT22;27666;51.498;11.966;2022-10-12T04:09:13;6.00;99.90
17956;DHT22;27666;51.498;11.966;2022-10-12T04:11:59;5.70;99.90
17956;DHT22;27666;51.498;11.966;2022-10-12T04:14:46;5.60;99.90
17956;DHT22;27666;51.498;11.966;2022-10-12T04:17:32;5.80;99.90
17956;DHT22;27666;51.498;11.966;2022-10-12T04:20:20;5.80;99.90
17956;DHT22;27666;51.498;11.966;2022-10-12T04:23:06;5.70;99.90
17956;DHT22;27666;51.498;11.966;2022-10-12T04:25:53;5.60;99.90
17956;DHT22;27666;51.498;11.966;2022-10-12T04:28:39;5.50;99.90
17956;DHT22;27666;51.498;11.966;2022-10-12T04:31:26;5.50;99.90
17956;DHT22;27666;51.498;11.966;2022-10-12T04:34:12;5.70;99.90
17956;DHT22;27666;51.498;11.966;2022-10-12T04:37:00;5.80;99.90
17956;DHT22;27666;51.498;11.966;2022-10-12T04:39:47;5.90;99.90
17956;DHT22;27666;51.498;11.966;2022-10-12T04:42:33;5.90;99.90
17956;DHT22;27666;51.498;11.966;2022-10-12T04:45:19;6.00;99.90
17956;DHT22;27666;51.498;11.966;2022-10-12T04:48:06;6.10;99.90
17956;DHT22;27666;51.498;11.966;2022-10-12T04:50:52;6.20;99.90
17956;DHT22;27666;51.498;11.966;2022-10-12T04:53:40;6.10;99.90
17956;DHT22;27666;51.498;11.966;2022-10-12T04:56:27;6.20;99.90
17956;DHT22;27666;51.498;11.966;2022-10-12T04:59:13;6.20;99.90
17956;DHT22;27666;51.498;11.966;2022-10-12T05:01:59;6.30;99.90
17956;DHT22;27666;51.498;11.966;2022-10-12T05:04:46;6.20;99.90
17956;DHT22;27666;51.498;11.966;2022-10-12T05:07:32;6.20;99.90
17956;DHT22;27666;51.498;11.966;2022-10-12T05:10:19;6.10;99.90
17956;DHT22;27666;51.498;11.966;2022-10-12T05:13:06;6.10;99.90
17956;DHT22;27666;51.498;11.966;2022-10-12T05:15:52;6.10;99.90
17956;DHT22;27666;51.498;11.966;2022-10-12T05:18:39;6.10;99.90
17956;DHT22;27666;51.498;11.966;2022-10-12T05:21:25;6.20;99.90
17956;DHT22;27666;51.498;11.966;2022-10-12T05:24:12;6.10;99.90
17956;DHT22;27666;51.498;11.966;2022-10-12T05:27:00;6.10;99.90
17956;DHT22;27666;51.498;11.966;2022-10-12T05:29:47;6.20;99.90
17956;DHT22;27666;51.498;11.966;2022-10-12T05:32:33;6.20;99.90
17956;DHT22;27666;51.498;11.966;2022-10-12T05:35:20;6.20;99.90
17956;DHT22;27666;51.498;11.966;2022-10-12T05:38:07;6.30;99.90
17956;DHT22;27666;51.498;11.966;2022-10-12T05:40:53;6.20;99.90
17956;DHT22;27666;51.498;11.966;2022-10-12T05:43:46;6.40;99.90
17956;DHT22;27666;51.498;11.966;2022-10-12T05:46:32;6.40;99.90
17956;DHT22;27666;51.498;11.966;2022-10-12T05:49:19;6.40;99.90
17956;DHT22;27666;51.498;11.966;2022-10-12T05:52:06;6.50;99.90
17956;DHT22;27666;51.498;11.966;2022-10-12T05:54:52;6.50;99.90
17956;DHT22;27666;51.498;11.966;2022-10-12T05:57:39;6.70;99.90
17956;DHT22;27666;51.498;11.966;2022-10-12T06:00:26;6.70;99.90
17956;DHT22;27666;51.498;11.966;2022-10-12T06:03:13;6.90;99.90
17956;DHT22;27666;51.498;11.966;2022-10-12T06:06:04;7.00;99.90
17956;DHT22;27666;51.498;11.966;2022-10-12T06:08:51;7.20;99.90
17956;DHT22;27666;51.498;11.966;2022-10-12T06:11:37;7.30;99.90
17956;DHT22;27666;51.498;11.966;2022-10-12T06:14:24;7.50;99.90
17956;DHT22;27666;51.498;11.966;2022-10-12T06:17:11;7.60;99.90
17956;DHT22;27666;51.498;11.966;2022-10-12T06:19:58;7.40;99.90
17956;DHT22;27666;51.498;11.966;2022-10-12T06:22:44;7.40;99.90
17956;DHT22;27666;51.498;11.966;2022-10-12T06:25:31;7.50;99.90
17956;DHT22;27666;51.498;11.966;2022-10-12T06:28:19;7.60;99.90
17956;DHT22;27666;51.498;11.966;2022-10-12T06:31:05;7.70;99.90
17956;DHT22;27666;51.498;11.966;2022-10-12T06:33:53;7.70;99.90
17956;DHT22;27666;51.498;11.966;2022-10-12T06:36:40;7.70;99.90
17956;DHT22;27666;51.498;11.966;2022-10-12T06:39:26;8.00;99.90
17956;DHT22;27666;51.498;11.966;2022-10-12T06:42:12;8.20;99.90
17956;DHT22;27666;51.498;11.966;2022-10-12T06:44:59;8.40;99.90
17956;DHT22;27666;51.498;11.966;2022-10-12T06:47:45;8.60;99.90
17956;DHT22;27666;51.498;11.966;2022-10-12T06:50:33;8.90;99.90
17956;DHT22;27666;51.498;11.966;2022-10-12T06:53:19;9.10;99.90
17956;DHT22;27666;51.498;11.966;2022-10-12T06:56:07;9.20;99.90
17956;DHT22;27666;51.498;11.966;2022-10-12T06:58:54;9.10;99.90
17956;DHT22;27666;51.498;11.966;2022-10-12T07:01:41;8.90;99.90
17956;DHT22;27666;51.498;11.966;2022-10-12T07:04:27;8.90;99.90
17956;DHT22;27666;51.498;11.966;2022-10-12T07:07:15;9.00;99.90
17956;DHT22;27666;51.498;11.966;2022-10-12T07:10:02;9.10;99.90
17956;DHT22;27666;51.498;11.966;2022-10-12T07:12:49;9.40;99.90
17956;DHT22;27666;51.498;11.966;2022-10-12T07:15:35;9.70;99.90
17956;DHT22;27666;51.498;11.966;2022-10-12T07:18:22;10.10;99.90
17956;DHT22;27666;51.498;11.966;2022-10-12T07:21:09;10.30;99.90
17956;DHT22;27666;51.498;11.966;2022-10-12T07:23:57;10.60;99.90
17956;DHT22;27666;51.498;11.966;2022-10-12T07:26:44;10.90;99.90
17956;DHT22;27666;51.498;11.966;2022-10-12T07:29:31;11.30;99.90
17956;DHT22;27666;51.498;11.966;2022-10-12T07:32:17;11.40;99.90
17956;DHT22;27666;51.498;11.966;2022-10-12T07:35:04;11.50;99.90
17956;DHT22;27666;51.498;11.966;2022-10-12T07:37:50;11.60;99.90
17956;DHT22;27666;51.498;11.966;2022-10-12T07:40:38;11.60;99.90
17956;DHT22;27666;51.498;11.966;2022-10-12T07:43:24;11.80;99.90
17956;DHT22;27666;51.498;11.966;2022-10-12T07:46:11;12.20;99.90
17956;DHT22;27666;51.498;11.966;2022-10-12T07:48:57;12.30;99.90
17956;DHT22;27666;51.498;11.966;2022-10-12T07:51:44;12.60;99.90
17956;DHT22;27666;51.498;11.966;2022-10-12T07:54:31;12.80;99.90
17956;DHT22;27666;51.498;11.966;2022-10-12T07:57:19;13.10;99.90
17956;DHT22;27666;51.498;11.966;2022-10-12T08:00:07;13.30;99.90
17956;DHT22;27666;51.498;11.966;2022-10-12T08:02:53;13.60;99.90
17956;DHT22;27666;51.498;11.966;2022-10-12T08:05:40;13.60;99.90
17956;DHT22;27666;51.498;11.966;2022-10-12T08:08:26;13.50;99.90
17956;DHT22;27666;51.498;11.966;2022-10-12T08:11:13;13.50;99.90
17956;DHT22;27666;51.498;11.966;2022-10-12T08:14:01;13.70;99.90
17956;DHT22;27666;51.498;11.966;2022-10-12T08:16:47;13.90;99.90
17956;DHT22;27666;51.498;11.966;2022-10-12T08:19:35;14.20;99.90
17956;DHT22;27666;51.498;11.966;2022-10-12T08:22:21;14.50;99.90
17956;DHT22;27666;51.498;11.966;2022-10-12T08:25:08;14.60;99.90
17956;DHT22;27666;51.498;11.966;2022-10-12T08:27:54;14.70;99.90
17956;DHT22;27666;51.498;11.966;2022-10-12T08:30:42;14.40;99.90
17956;DHT22;27666;51.498;11.966;2022-10-12T08:33:28;14.20;99.90
17956;DHT22;27666;51.498;11.966;2022-10-12T08:36:15;14.40;99.90
17956;DHT22;27666;51.498;11.966;2022-10-12T08:39:01;14.40;99.90
17956;DHT22;27666;51.498;11.966;2022-10-12T08:41:57;14.50;99.90
17956;DHT22;27666;51.498;11.966;2022-10-12T08:45:02;14.50;99.90
17956;DHT22;27666;51.498;11.966;2022-10-12T08:47:53;14.40;99.90
17956;DHT22;27666;51.498;11.966;2022-10-12T08:50:46;14.50;99.90
17956;DHT22;27666;51.498;11.966;2022-10-12T08:53:37;14.70;99.90
17956;DHT22;27666;51.498;11.966;2022-10-12T08:56:29;14.60;99.90
17956;DHT22;27666;51.498;11.966;2022-10-12T08:59:18;14.80;99.90
17956;DHT22;27666;51.498;11.966;2022-10-12T09:02:17;15.10;99.90
17956;DHT22;27666;51.498;11.966;2022-10-12T09:05:11;15.20;99.90
17956;DHT22;27666;51.498;11.966;2022-10-12T09:08:03;15.20;99.90
17956;DHT22;27666;51.498;11.966;2022-10-12T09:10:57;15.20;99.90
17956;DHT22;27666;51.498;11.966;2022-10-12T09:13:51;15.10;99.90
17956;DHT22;27666;51.498;11.966;2022-10-12T09:16:40;15.20;99.90
17956;DHT22;27666;51.498;11.966;2022-10-12T09:19:31;15.40;99.90
17956;DHT22;27666;51.498;11.966;2022-10-12T09:22:21;15.30;99.90
17956;DHT22;27666;51.498;11.966;2022-10-12T09:25:11;15.30;99.90
17956;DHT22;27666;51.498;11.966;2022-10-12T09:28:10;15.30;99.90
17956;DHT22;27666;51.498;11.966;2022-10-12T09:31:18;15.30;99.90
17956;DHT22;27666;51.498;11.966;2022-10-12T09:34:08;15.50;99.90
17956;DHT22;27666;51.498;11.966;2022-10-12T09:37:01;15.70;99.90
17956;DHT22;27666;51.498;11.966;2022-10-12T09:39:50;15.70;99.90
17956;DHT22;27666;51.498;11.966;2022-10-12T09:42:37;15.70;99.90
17956;DHT22;27666;51.498;11.966;2022-10-12T09:45:23;15.50;99.90
17956;DHT22;27666;51.498;11.966;2022-10-12T09:48:13;15.70;99.90
17956;DHT22;27666;51.498;11.966;2022-10-12T09:51:02;16.00;99.90
17956;DHT22;27666;51.498;11.966;2022-10-12T09:53:49;16.30;99.90
17956;DHT22;27666;51.498;11.966;2022-10-12T09:56:46;16.50;99.90
17956;DHT22;27666;51.498;11.966;2022-10-12T09:59:37;16.70;99.90
17956;DHT22;27666;51.498;11.966;2022-10-12T10:02:24;16.70;99.90
17956;DHT22;27666;51.498;11.966;2022-10-12T10:05:23;16.60;99.90
17956;DHT22;27666;51.498;11.966;2022-10-12T10:08:18;16.70;99.90
17956;DHT22;27666;51.498;11.966;2022-10-12T10:11:12;16.80;99.90
17956;DHT22;27666;51.498;11.966;2022-10-12T10:14:01;16.70;99.90
17956;DHT22;27666;51.498;11.966;2022-10-12T10:16:49;16.40;99.90
17956;DHT22;27666;51.498;11.966;2022-10-12T10:19:36;16.30;99.90
17956;DHT22;27666;51.498;11.966;2022-10-12T10:22:23;16.20;99.90
17956;DHT22;27666;51.498;11.966;2022-10-12T10:25:18;16.30;99.90
17956;DHT22;27666;51.498;11.966;2022-10-12T10:28:20;16.10;99.90
17956;DHT22;27666;51.498;11.966;2022-10-12T10:31:16;15.80;99.90
17956;DHT22;27666;51.498;11.966;2022-10-12T10:34:19;15.70;99.90
17956;DHT22;27666;51.498;11.966;2022-10-12T10:37:06;15.50;99.90
17956;DHT22;27666;51.498;11.966;2022-10-12T10:39:59;15.40;99.90
17956;DHT22;27666;51.498;11.966;2022-10-12T10:42:49;15.40;99.90
17956;DHT22;27666;51.498;11.966;2022-10-12T10:45:41;15.50;99.90
17956;DHT22;27666;51.498;11.966;2022-10-12T10:48:49;15.50;99.90
17956;DHT22;27666;51.498;11.966;2022-10-12T10:51:43;15.50;99.90
17956;DHT22;27666;51.498;11.966;2022-10-12T10:54:35;15.50;99.90
17956;DHT22;27666;51.498;11.966;2022-10-12T10:57:24;15.60;99.90
17956;DHT22;27666;51.498;11.966;2022-10-12T11:00:14;15.70;99.90
17956;DHT22;27666;51.498;11.966;2022-10-12T11:03:24;15.50;99.90
17956;DHT22;27666;51.498;11.966;2022-10-12T11:06:18;15.50;99.90
17956;DHT22;27666;51.498;11.966;2022-10-12T11:09:10;15.50;99.90
17956;DHT22;27666;51.498;11.966;2022-10-12T11:12:02;15.40;99.90
17956;DHT22;27666;51.498;11.966;2022-10-12T11:14:52;15.40;99.90
17956;DHT22;27666;51.498;11.966;2022-10-12T11:17:44;15.30;99.90
17956;DHT22;27666;51.498;11.966;2022-10-12T11:20:46;15.20;99.90
17956;DHT22;27666;51.498;11.966;2022-10-12T11:23:43;15.10;99.90
17956;DHT22;27666;51.498;11.966;2022-10-12T11:26:36;15.10;99.90
17956;DHT22;27666;51.498;11.966;2022-10-12T11:29:23;15.20;99.90
17956;DHT22;27666;51.498;11.966;2022-10-12T11:32:20;15.20;99.90
17956;DHT22;27666;51.498;11.966;2022-10-12T11:35:14;15.20;99.90
17956;DHT22;27666;51.498;11.966;2022-10-12T11:38:05;15.20;99.90
17956;DHT22;27666;51.498;11.966;2022-10-12T11:41:05;15.20;99.90
17956;DHT22;27666;51.498;11.966;2022-10-12T11:44:15;15.20;99.90
17956;DHT22;27666;51.498;11.966;2022-10-12T11:47:07;15.10;99.90
17956;DHT22;27666;51.498;11.966;2022-10-12T11:49:58;15.20;99.90
17956;DHT22;27666;51.498;11.966;2022-10-12T11:52:47;15.30;99.90
17956;DHT22;27666;51.498;11.966;2022-10-12T11:55:49;15.20;99.90
17956;DHT22;27666;51.498;11.966;2022-10-12T11:58:40;15.30;99.90
17956;DHT22;27666;51.498;11.966;2022-10-12T12:01:52;15.10;99.90
17956;DHT22;27666;51.498;11.966;2022-10-12T12:04:43;15.10;99.90
17956;DHT22;27666;51.498;11.966;2022-10-12T12:07:52;15.10;99.90
17956;DHT22;27666;51.498;11.966;2022-10-12T12:10:52;15.00;99.90
17956;DHT22;27666;51.498;11.966;2022-10-12T12:13:40;15.10;99.90
17956;DHT22;27666;51.498;11.966;2022-10-12T12:16:30;15.10;99.90
17956;DHT22;27666;51.498;11.966;2022-10-12T12:19:35;15.10;99.90
17956;DHT22;27666;51.498;11.966;2022-10-12T12:22:48;15.20;99.90
17956;DHT22;27666;51.498;11.966;2022-10-12T12:25:36;15.20;99.90
17956;DHT22;27666;51.498;11.966;2022-10-12T12:28:23;15.10;99.90
17956;DHT22;27666;51.498;11.966;2022-10-12T12:31:14;15.20;99.90
17956;DHT22;27666;51.498;11.966;2022-10-12T12:34:04;15.30;99.90
17956;DHT22;27666;51.498;11.966;2022-10-12T12:36:51;15.30;99.90
17956;DHT22;27666;51.498;11.966;2022-10-12T12:39:39;15.30;99.90
17956;DHT22;27666;51.498;11.966;2022-10-12T12:42:28;15.30;99.90
17956;DHT22;27666;51.498;11.966;2022-10-12T12:45:39;15.30;99.90
17956;DHT22;27666;51.498;11.966;2022-10-12T12:48:59;15.20;99.90
17956;DHT22;27666;51.498;11.966;2022-10-12T12:51:45;15.30;99.90
17956;DHT22;27666;51.498;11.966;2022-10-12T12:54:34;15.30;99.90
17956;DHT22;27666;51.498;11.966;2022-10-12T12:57:44;15.40;99.90
17956;DHT22;27666;51.498;11.966;2022-10-12T13:00:37;15.50;99.90
17956;DHT22;27666;51.498;11.966;2022-10-12T13:03:54;15.50;99.90
17956;DHT22;27666;51.498;11.966;2022-10-12T13:07:09;15.50;99.90
17956;DHT22;27666;51.498;11.966;2022-10-12T13:10:21;15.40;99.90
17956;DHT22;27666;51.498;11.966;2022-10-12T13:13:29;15.50;99.90
17956;DHT22;27666;51.498;11.966;2022-10-12T13:16:42;15.50;99.90
17956;DHT22;27666;51.498;11.966;2022-10-12T13:19:53;15.50;99.90
17956;DHT22;27666;51.498;11.966;2022-10-12T13:22:43;15.50;99.90
17956;DHT22;27666;51.498;11.966;2022-10-12T13:25:33;15.50;99.90
17956;DHT22;27666;51.498;11.966;2022-10-12T13:28:23;15.40;99.90
17956;DHT22;27666;51.498;11.966;2022-10-12T13:31:15;15.50;99.90
17956;DHT22;27666;51.498;11.966;2022-10-12T13:34:10;15.50;99.90
17956;DHT22;27666;51.498;11.966;2022-10-12T13:37:00;15.60;99.90
17956;DHT22;27666;51.498;11.966;2022-10-12T13:39:48;15.60;99.90
17956;DHT22;27666;51.498;11.966;2022-10-12T13:42:36;15.50;99.90
17956;DHT22;27666;51.498;11.966;2022-10-12T13:45:23;15.40;99.90
17956;DHT22;27666;51.498;11.966;2022-10-12T13:48:15;15.40;99.90
17956;DHT22;27666;51.498;11.966;2022-10-12T13:51:25;15.40;99.90
17956;DHT22;27666;51.498;11.966;2022-10-12T13:54:18;15.50;99.90
17956;DHT22;27666;51.498;11.966;2022-10-12T13:57:15;15.50;99.90
17956;DHT22;27666;51.498;11.966;2022-10-12T14:00:08;15.60;99.90
17956;DHT22;27666;51.498;11.966;2022-10-12T14:02:57;15.60;99.90
17956;DHT22;27666;51.498;11.966;2022-10-12T14:05:44;15.60;99.90
17956;DHT22;27666;51.498;11.966;2022-10-12T14:08:32;15.50;99.90
17956;DHT22;27666;51.498;11.966;2022-10-12T14:11:19;15.50;99.90
17956;DHT22;27666;51.498;11.966;2022-10-12T14:14:16;15.60;99.90
17956;DHT22;27666;51.498;11.966;2022-10-12T14:17:03;15.70;99.90
17956;DHT22;27666;51.498;11.966;2022-10-12T14:19:51;15.80;99.90
17956;DHT22;27666;51.498;11.966;2022-10-12T14:22:38;15.70;99.90
17956;DHT22;27666;51.498;11.966;2022-10-12T14:25:27;15.70;99.90
17956;DHT22;27666;51.498;11.966;2022-10-12T14:28:28;15.70;99.90
17956;DHT22;27666;51.498;11.966;2022-10-12T14:31:17;15.70;99.90
17956;DHT22;27666;51.498;11.966;2022-10-12T14:34:21;15.60;99.90
17956;DHT22;27666;51.498;11.966;2022-10-12T14:37:22;15.50;99.90
17956;DHT22;27666;51.498;11.966;2022-10-12T14:40:31;15.50;99.90
17956;DHT22;27666;51.498;11.966;2022-10-12T14:43:20;15.40;99.90
17956;DHT22;27666;51.498;11.966;2022-10-12T14:46:08;15.30;99.90
17956;DHT22;27666;51.498;11.966;2022-10-12T14:48:57;15.30;99.90
17956;DHT22;27666;51.498;11.966;2022-10-12T14:51:44;15.30;99.90
17956;DHT22;27666;51.498;11.966;2022-10-12T14:54:30;15.30;99.90
17956;DHT22;27666;51.498;11.966;2022-10-12T14:57:17;15.30;99.90
17956;DHT22;27666;51.498;11.966;2022-10-12T15:00:05;15.30;99.90
17956;DHT22;27666;51.498;11.966;2022-10-12T15:02:51;15.40;99.90
17956;DHT22;27666;51.498;11.966;2022-10-12T15:05:39;15.30;99.90
17956;DHT22;27666;51.498;11.966;2022-10-12T15:08:25;15.30;99.90
17956;DHT22;27666;51.498;11.966;2022-10-12T15:11:18;15.30;99.90
17956;DHT22;27666;51.498;11.966;2022-10-12T15:14:10;15.10;99.90
17956;DHT22;27666;51.498;11.966;2022-10-12T15:17:00;15.10;99.90
17956;DHT22;27666;51.498;11.966;2022-10-12T15:19:49;15.00;99.90
17956;DHT22;27666;51.498;11.966;2022-10-12T15:22:37;15.00;99.90
17956;DHT22;27666;51.498;11.966;2022-10-12T15:25:26;15.10;99.90
17956;DHT22;27666;51.498;11.966;2022-10-12T15:28:13;15.00;99.90
17956;DHT22;27666;51.498;11.966;2022-10-12T15:31:00;15.00;99.90
17956;DHT22;27666;51.498;11.966;2022-10-12T15:34:04;15.00;99.90
17956;DHT22;27666;51.498;11.966;2022-10-12T15:36:51;15.00;99.90
17956;DHT22;27666;51.498;11.966;2022-10-12T15:39:39;14.80;99.90
17956;DHT22;27666;51.498;11.966;2022-10-12T15:42:26;14.80;99.90
17956;DHT22;27666;51.498;11.966;2022-10-12T15:45:19;14.80;99.90
17956;DHT22;27666;51.498;11.966;2022-10-12T15:48:06;14.80;99.90
17956;DHT22;27666;51.498;11.966;2022-10-12T15:50:53;14.80;99.90
17956;DHT22;27666;51.498;11.966;2022-10-12T15:53:40;14.90;99.90
17956;DHT22;27666;51.498;11.966;2022-10-12T15:56:28;14.80;99.90
17956;DHT22;27666;51.498;11.966;2022-10-12T15:59:14;14.70;99.90
17956;DHT22;27666;51.498;11.966;2022-10-12T16:02:01;14.70;99.90
17956;DHT22;27666;51.498;11.966;2022-10-12T16:04:47;14.60;99.90
17956;DHT22;27666;51.498;11.966;2022-10-12T16:07:34;14.60;99.90
17956;DHT22;27666;51.498;11.966;2022-10-12T16:10:22;14.50;99.90
17956;DHT22;27666;51.498;11.966;2022-10-12T16:13:12;14.40;99.90
17956;DHT22;27666;51.498;11.966;2022-10-12T16:15:59;14.40;99.90
17956;DHT22;27666;51.498;11.966;2022-10-12T16:18:45;14.30;99.90
17956;DHT22;27666;51.498;11.966;2022-10-12T16:21:32;14.20;99.90
17956;DHT22;27666;51.498;11.966;2022-10-12T16:24:19;14.20;99.90
17956;DHT22;27666;51.498;11.966;2022-10-12T16:27:05;14.20;99.90
17956;DHT22;27666;51.498;11.966;2022-10-12T16:29:52;14.30;99.90
17956;DHT22;27666;51.498;11.966;2022-10-12T16:32:39;14.20;99.90
17956;DHT22;27666;51.498;11.966;2022-10-12T16:35:25;14.10;99.90
17956;DHT22;27666;51.498;11.966;2022-10-12T16:38:12;14.10;99.90
17956;DHT22;27666;51.498;11.966;2022-10-12T16:40:59;14.20;99.90
17956;DHT22;27666;51.498;11.966;2022-10-12T16:43:46;13.90;99.90
17956;DHT22;27666;51.498;11.966;2022-10-12T16:46:34;14.00;99.90
17956;DHT22;27666;51.498;11.966;2022-10-12T16:49:21;14.10;99.90
17956;DHT22;27666;51.498;11.966;2022-10-12T16:52:08;14.00;99.90
17956;DHT22;27666;51.498;11.966;2022-10-12T16:54:54;14.10;99.90
17956;DHT22;27666;51.498;11.966;2022-10-12T16:57:41;14.00;99.90
17956;DHT22;27666;51.498;11.966;2022-10-12T17:00:27;13.90;99.90
17956;DHT22;27666;51.498;11.966;2022-10-12T17:03:15;13.90;99.90
17956;DHT22;27666;51.498;11.966;2022-10-12T17:06:01;13.90;99.90
17956;DHT22;27666;51.498;11.966;2022-10-12T17:08:47;13.90;99.90
17956;DHT22;27666;51.498;11.966;2022-10-12T17:11:35;13.90;99.90
17956;DHT22;27666;51.498;11.966;2022-10-12T17:14:22;13.70;99.90
17956;DHT22;27666;51.498;11.966;2022-10-12T17:17:09;13.70;99.90
17956;DHT22;27666;51.498;11.966;2022-10-12T17:19:56;13.70;99.90
17956;DHT22;27666;51.498;11.966;2022-10-12T17:22:43;13.70;99.90
17956;DHT22;27666;51.498;11.966;2022-10-12T17:25:29;13.70;99.90
17956;DHT22;27666;51.498;11.966;2022-10-12T17:28:16;13.70;99.90
17956;DHT22;27666;51.498;11.966;2022-10-12T17:31:03;13.70;99.90
17956;DHT22;27666;51.498;11.966;2022-10-12T17:33:56;13.50;99.90
17956;DHT22;27666;51.498;11.966;2022-10-12T17:36:43;13.70;99.90
17956;DHT22;27666;51.498;11.966;2022-10-12T17:39:31;13.60;99.90
17956;DHT22;27666;51.498;11.966;2022-10-12T17:42:18;13.50;99.90
17956;DHT22;27666;51.498;11.966;2022-10-12T17:45:07;13.50;99.90
17956;DHT22;27666;51.498;11.966;2022-10-12T17:47:54;13.40;99.90